Share

Gila Bend, AZ

4:58 PM MST on April 24, 2014 (GMT -0700)
Gila Bend AF Aux AP, Gila Ben (KGXF) Elev 883 ft | 32.89 °N, 112.72 °W | Change Station
Active Advisory: Special Statement

Current weather conditions updated 3 minutes ago

Scattered Clouds
Scattered Clouds
88 °F
Feels Like 88 °F
N
7
Wind Variable Wind from NW
Sunrise 5:50 AM
Sunset 7:07 PM
Moon Waning Crescent

Tomorrow is forecast to be Warmer than today.

Pressure 29.81 in
Visibility 10.0 miles
Clouds Scattered Clouds 20000 ft
Dew Point 19 °F
Humidity 8%
Rainfall 0.00 in
Snow Depth Not available.
UV 2 out of 16
Pollen 7.80 out of 12
Air Quality Not available.
Flu Activity Local Activity
METAR KGXF 242355Z 32006KT 10SM SCT200 31/M07 A2983 RMK CONTRAILS SLP092 56022

More Conditions Fewer Conditions

Pressure 29.81 in
Visibility 10.0 miles
Clouds Scattered Clouds 20000 ft
Dew Point 19 °F
Humidity 8%
Rainfall 0.00 in
Snow Depth Not available.
UV 2 out of 16
Pollen 7.80 out of 12
Air Quality Not available.
Flu Activity Local Activity
METAR KGXF 242355Z 32006KT 10SM SCT200 31/M07 A2983 RMK CONTRAILS SLP092 56022

More Conditions Fewer Conditions

10-Day Weather Forecast

Almanac

Astronomy

Apr. 24, 2014 Rise Set
Actual Time 5:50 AM MST 7:07 PM MST
Civil Twilight 5:24 AM MST 7:33 PM MST
Nautical Twilight 4:54 AM MST 8:04 PM MST
Astronomical Twilight 4:22 AM MST 8:36 PM MST
Moon 2:48 AM MST 2:42 PM MST
Length of Visible Light 14h 08m
Length of Day
13h 17m
Tomorrow will be 1m 49s longer.
Waning Crescent, 21% of the Moon is Illuminated
Today
Waning Crescent
Apr 29
New
May 6
First Quarter
May 14
Full
May 21
Last Quarter

Today's Extremes

State Highs State Lows

Community

  • Jone Runs Falls
    Jone Runs Falls
  • Easter in Shenandoah National Park
    Easter in Shenandoah National Park
  • Sunset at Apalachicola Bay, Florida
    Sunset at Apalachicola Bay, Florida
  • Clouds mov'n in
    Clouds mov'n in
  • Stacked
    Stacked

WunderPhotos

Upload Photos

1,704,746 photos uploaded!

Nearby

Snow Depth

Station Depth Elevation
Happy Jack 0 in 7630 ft
Snowslide Canyon 1 in 9730 ft

Coastal Water Temperatures

Place Temperature
No Stations Reporting

Earthquake Activity

City Distance Mag. Time & Date
No recent earthquake activity has been reported nearby.
Minimum magnitude displayed is 2.5.

Nearby Weather Stations

Station Location Temp. Heat Index Dew Point Humidity Wind Precip. Elev Updated Type
MesoWest SMUR , Gila Bend, AZ 96 °F 91 °F - - WNW  at  6 mph 0.00 in / hr 728 ft 4:10 PM MST MADIS
HCN GILA BEND 3 ENE AZ , Gila Bend, AZ 89 °F 86 °F - - North  at  - 0.00 in / hr 753 ft 4:35 PM MST MADIS
MesoWest BOSQUE , Gila Bend, AZ 91 °F 87 °F - - SW  at  8 mph 0.00 in / hr 1079 ft 4:00 PM MST MADIS
SR 85 Landfill, Buckeye, AZ 87.4 °F 84 °F 12 °F 6% South  at  6.0 mph 0.00 in / hr 850 ft 4:58 PM MST Rapid Fire

Show More Stations Show Fewer Stations

What do you think?

We're not finished. Please let us know what you like, what you don't like, and what you are still missing.